Time;durP1;ratioP1;P1;durP2;ratioP2;P2;SDS_P1;SDS_P2;PMS_P1;PMS_P2;Temp;Humidity;BMP_temperature;BMP_pressure;BME280_temperature;BME280_humidity;BME280_pressure;Samples;Min_cycle;Max_cycle;Signal;HPM_P1;HPM_P2
2023/09/07 00:02:55;;;;;;;10.85;5.72;;;;;15.50;96817.00;;;;8248725;28;20230;-66
2023/09/07 00:07:00;;;;;;;8.77;6.00;;;;;15.50;96812.00;;;;8249674;28;20373;-66
2023/09/07 00:11:06;;;;;;;10.50;6.60;;;;;15.50;96809.00;;;;8249789;28;20587;-65
2023/09/07 00:15:11;;;;;;;10.32;6.15;;;;;16.00;96806.00;;;;8247096;28;20213;-66
2023/09/07 00:19:15;;;;;;;7.82;5.88;;;;;16.50;96812.00;;;;8248087;28;20291;-66
2023/09/07 00:23:22;;;;;;;7.95;5.80;;;;;16.70;96808.00;;;;8248730;28;20321;-66
2023/09/07 00:27:27;;;;;;;5.90;5.07;;;;;16.70;96803.00;;;;8247670;28;20201;-65
2023/09/07 00:31:30;;;;;;;6.95;5.43;;;;;16.50;96797.00;;;;8250349;28;20828;-65
2023/09/07 00:35:36;;;;;;;9.85;5.38;;;;;16.60;96803.00;;;;8236269;28;20198;-65
2023/09/07 00:39:40;;;;;;;7.07;5.47;;;;;16.70;96805.00;;;;8250519;28;20260;-66
2023/09/07 00:43:48;;;;;;;6.35;5.20;;;;;16.50;96804.00;;;;8251879;28;20254;-65
2023/09/07 00:47:55;;;;;;;7.05;4.95;;;;;16.10;96797.00;;;;8231518;28;20298;-66
2023/09/07 00:51:59;;;;;;;12.10;5.78;;;;;15.80;96798.00;;;;8254056;28;20202;-65
2023/09/07 00:56:06;;;;;;;6.82;5.63;;;;;15.60;96794.00;;;;8248061;28;20195;-66
2023/09/07 01:00:11;;;;;;;7.68;5.90;;;;;15.50;96790.00;;;;8235409;28;20572;-65
2023/09/07 01:04:14;;;;;;;6.10;5.50;;;;;15.70;96793.00;;;;8252230;28;20309;-65
2023/09/07 01:08:25;;;;;;;7.88;6.00;;;;;16.10;96786.00;;;;8247499;28;21063;-66
2023/09/07 01:12:30;;;;;;;7.32;5.10;;;;;16.50;96789.00;;;;8257379;28;20224;-65
2023/09/07 01:16:38;;;;;;;9.27;6.13;;;;;16.70;96789.00;;;;8236948;28;20207;-66
2023/09/07 01:20:46;;;;;;;8.18;5.57;;;;;16.90;96781.00;;;;8247065;28;20198;-65
2023/09/07 01:24:56;;;;;;;6.75;5.60;;;;;17.10;96775.00;;;;8253335;28;21014;-66
2023/09/07 01:29:00;;;;;;;7.78;5.45;;;;;17.10;96777.00;;;;8253754;28;20290;-65
2023/09/07 01:33:04;;;;;;;6.57;5.80;;;;;17.20;96776.00;;;;8252804;28;20720;-66
2023/09/07 01:37:07;;;;;;;10.10;5.78;;;;;17.20;96776.00;;;;8254074;28;20282;-66
2023/09/07 01:41:11;;;;;;;7.30;5.85;;;;;17.10;96773.00;;;;8251583;28;20209;-65
2023/09/07 01:45:15;;;;;;;7.45;5.57;;;;;17.10;96769.00;;;;8248164;28;20262;-65
2023/09/07 01:49:20;;;;;;;8.20;5.18;;;;;17.00;96772.00;;;;8250172;28;20261;-65
2023/09/07 01:53:23;;;;;;;6.47;5.50;;;;;17.00;96764.00;;;;8252518;28;20257;-66
2023/09/07 01:57:27;;;;;;;5.78;5.28;;;;;17.00;96769.00;;;;8251184;28;20213;-65
2023/09/07 02:01:36;;;;;;;7.28;5.40;;;;;16.90;96767.00;;;;8231830;28;20210;-66
2023/09/07 02:05:42;;;;;;;6.35;5.55;;;;;16.90;96767.00;;;;8252509;28;20529;-66
2023/09/07 02:09:45;;;;;;;6.93;5.63;;;;;16.90;96769.00;;;;8249288;28;20782;-65
2023/09/07 02:13:50;;;;;;;9.20;5.63;;;;;16.90;96767.00;;;;8249203;28;20293;-66
2023/09/07 02:17:57;;;;;;;6.82;5.32;;;;;16.90;96770.00;;;;8250753;28;20278;-64
2023/09/07 02:22:03;;;;;;;7.00;5.47;;;;;16.90;96767.00;;;;8247152;28;20281;-65
2023/09/07 02:26:06;;;;;;;7.05;5.75;;;;;17.00;96767.00;;;;8247377;28;20209;-65
2023/09/07 02:30:18;;;;;;;12.05;5.30;;;;;17.00;96769.00;;;;8252178;28;20242;-66
2023/09/07 02:34:22;;;;;;;8.63;5.93;;;;;16.90;96769.00;;;;8248718;28;20257;-66
2023/09/07 02:38:26;;;;;;;12.52;5.20;;;;;16.90;96767.00;;;;8253425;28;20206;-65
2023/09/07 02:42:29;;;;;;;9.38;5.80;;;;;16.90;96768.00;;;;8249097;28;20227;-66
2023/09/07 02:46:35;;;;;;;6.93;5.28;;;;;16.80;96773.00;;;;8249736;28;20199;-65
2023/09/07 02:50:45;;;;;;;9.70;5.80;;;;;16.80;96776.00;;;;8248010;28;20199;-65
2023/09/07 02:54:48;;;;;;;10.05;5.80;;;;;16.70;96776.00;;;;8253555;28;20286;-66
2023/09/07 02:58:51;;;;;;;6.70;5.78;;;;;16.60;96773.00;;;;8251993;28;20675;-65
2023/09/07 03:02:58;;;;;;;8.80;5.90;;;;;16.60;96766.00;;;;8279095;23;20259;-66
2023/09/07 03:07:01;;;;;;;6.43;5.55;;;;;16.50;96766.00;;;;8189148;28;20196;-66
2023/09/07 03:11:05;;;;;;;8.13;5.80;;;;;16.50;96765.00;;;;8191704;28;20208;-66
2023/09/07 03:15:10;;;;;;;6.45;5.15;;;;;16.40;96768.00;;;;8192723;28;20905;-67
2023/09/07 03:19:16;;;;;;;9.90;6.03;;;;;16.20;96763.00;;;;8190809;28;20291;-67
2023/09/07 03:23:21;;;;;;;10.73;6.25;;;;;16.00;96756.00;;;;8187069;28;20231;-66
2023/09/07 03:27:24;;;;;;;6.40;5.43;;;;;15.80;96763.00;;;;8191185;28;20924;-66
2023/09/07 03:31:27;;;;;;;7.50;5.95;;;;;15.60;96752.00;;;;8188518;28;20330;-67
2023/09/07 03:35:34;;;;;;;8.30;6.07;;;;;15.40;96757.00;;;;8186175;28;20223;-66
2023/09/07 03:39:40;;;;;;;9.63;6.65;;;;;15.30;96759.00;;;;8196329;28;20677;-66
2023/09/07 03:43:44;;;;;;;7.40;5.85;;;;;15.20;96759.00;;;;8199748;28;20223;-67
2023/09/07 03:47:49;;;;;;;7.25;5.93;;;;;15.10;96766.00;;;;8195029;28;20202;-66
2023/09/07 03:51:55;;;;;;;9.57;5.53;;;;;14.80;96762.00;;;;8177105;28;20242;-66
2023/09/07 03:55:58;;;;;;;9.10;5.82;;;;;14.40;96758.00;;;;8188385;28;20211;-67
2023/09/07 04:00:08;;;;;;;12.32;7.28;;;;;14.10;96754.00;;;;8184956;28;20640;-65
2023/09/07 04:04:11;;;;;;;7.90;6.50;;;;;13.90;96762.00;;;;8180390;28;20247;-67
2023/09/07 04:08:18;;;;;;;8.30;6.78;;;;;13.60;96756.00;;;;8185370;28;20208;-65
2023/09/07 04:12:21;;;;;;;10.90;6.10;;;;;13.40;96760.00;;;;8184245;28;20193;-66
2023/09/07 04:16:24;;;;;;;11.27;7.07;;;;;13.20;96756.00;;;;8185293;28;20295;-67
2023/09/07 04:20:30;;;;;;;9.30;6.75;;;;;13.00;96766.00;;;;8190666;28;20213;-65
2023/09/07 04:24:34;;;;;;;9.32;6.68;;;;;12.80;96761.00;;;;8184728;28;20378;-67
2023/09/07 04:28:40;;;;;;;10.50;7.30;;;;;12.70;96760.00;;;;8184181;28;20764;-66
2023/09/07 04:32:45;;;;;;;10.57;6.90;;;;;12.70;96761.00;;;;8177069;28;20217;-66
2023/09/07 04:36:49;;;;;;;11.05;7.32;;;;;12.70;96766.00;;;;8192190;28;20210;-66
2023/09/07 04:40:53;;;;;;;14.32;7.18;;;;;12.60;96770.00;;;;8184301;28;20325;-67
2023/09/07 04:44:59;;;;;;;12.55;6.82;;;;;12.60;96770.00;;;;8180060;28;20278;-67
2023/09/07 04:49:06;;;;;;;11.70;7.63;;;;;12.60;96763.00;;;;8187496;28;20840;-66
2023/09/07 04:53:09;;;;;;;11.68;7.55;;;;;12.60;96764.00;;;;8188527;28;20297;-66
2023/09/07 04:57:16;;;;;;;11.88;6.88;;;;;12.60;96772.00;;;;8177219;28;20200;-65
2023/09/07 05:01:19;;;;;;;12.45;7.25;;;;;12.50;96769.00;;;;8191918;28;20611;-66
2023/09/07 05:05:28;;;;;;;12.48;7.22;;;;;12.40;96779.00;;;;8187978;28;20238;-67
2023/09/07 05:09:31;;;;;;;12.57;7.72;;;;;12.40;96772.00;;;;8184264;28;20245;-66
2023/09/07 05:13:36;;;;;;;12.93;7.38;;;;;12.50;96780.00;;;;8182233;28;20198;-66
2023/09/07 05:17:40;;;;;;;14.07;7.68;;;;;12.50;96778.00;;;;8180851;28;20206;-66
2023/09/07 05:21:43;;;;;;;11.32;7.78;;;;;12.50;96779.00;;;;8188434;28;20585;-67
2023/09/07 05:25:48;;;;;;;16.02;8.82;;;;;12.60;96793.00;;;;8182277;28;20229;-67
2023/09/07 05:29:53;;;;;;;14.93;9.15;;;;;12.80;96789.00;;;;8188071;28;20266;-65
2023/09/07 05:33:57;;;;;;;12.98;7.88;;;;;12.90;96789.00;;;;8188072;28;20799;-66
2023/09/07 05:38:03;;;;;;;10.55;7.60;;;;;13.00;96792.00;;;;8187178;28;20217;-66
2023/09/07 05:42:06;;;;;;;11.60;8.05;;;;;13.10;96799.00;;;;8186702;28;20207;-65
2023/09/07 05:46:15;;;;;;;11.15;7.70;;;;;13.30;96807.00;;;;8187565;28;20716;-65
2023/09/07 05:50:20;;;;;;;11.50;8.35;;;;;13.40;96810.00;;;;8187556;28;20202;-66
2023/09/07 05:54:26;;;;;;;11.73;7.82;;;;;13.70;96813.00;;;;8183688;28;21080;-66
2023/09/07 05:58:29;;;;;;;13.02;8.05;;;;;14.30;96816.00;;;;8182744;28;20211;-67
2023/09/07 06:02:35;;;;;;;11.13;7.05;;;;;14.90;96816.00;;;;8171814;28;20320;-67
2023/09/07 06:06:38;;;;;;;9.77;7.30;;;;;15.30;96824.00;;;;8180518;28;20282;-68
2023/09/07 06:10:41;;;;;;;11.18;6.70;;;;;15.70;96827.00;;;;8178532;28;20678;-67
2023/09/07 06:14:46;;;;;;;7.90;6.40;;;;;16.20;96830.00;;;;8183249;28;20286;-67
2023/09/07 06:18:50;;;;;;;10.10;6.22;;;;;16.50;96829.00;;;;8181185;28;20996;-66
2023/09/07 06:22:54;;;;;;;6.68;6.03;;;;;16.80;96839.00;;;;8184086;28;20706;-66
2023/09/07 06:26:57;;;;;;;6.75;5.30;;;;;17.00;96839.00;;;;8185589;28;20239;-66
2023/09/07 06:31:03;;;;;;;7.68;5.68;;;;;17.20;96838.00;;;;8182827;28;20211;-65
2023/09/07 06:35:10;;;;;;;8.77;5.65;;;;;17.40;96840.00;;;;8180852;28;20251;-65
2023/09/07 06:39:13;;;;;;;11.02;5.70;;;;;17.50;96846.00;;;;8183599;28;20211;-64
2023/09/07 06:43:16;;;;;;;10.75;5.65;;;;;17.60;96844.00;;;;8183284;28;20235;-65
2023/09/07 06:47:21;;;;;;;6.88;5.78;;;;;17.80;96835.00;;;;8183171;28;20205;-65
2023/09/07 06:51:25;;;;;;;7.78;5.60;;;;;17.90;96840.00;;;;8184422;28;20214;-68
2023/09/07 06:55:29;;;;;;;11.23;5.60;;;;;18.10;96849.00;;;;8181615;28;20195;-64
2023/09/07 06:59:33;;;;;;;13.15;5.32;;;;;18.20;96852.00;;;;8177040;28;20208;-65
2023/09/07 07:03:38;;;;;;;6.28;5.07;;;;;18.40;96849.00;;;;8175275;28;20238;-65
2023/09/07 07:07:42;;;;;;;7.50;5.20;;;;;18.60;96849.00;;;;8181384;28;20207;-65
2023/09/07 07:11:49;;;;;;;6.20;5.03;;;;;18.70;96850.00;;;;8178581;28;20319;-66
2023/09/07 07:15:53;;;;;;;10.55;4.90;;;;;18.80;96846.00;;;;8175851;28;20200;-66
2023/09/07 07:19:57;;;;;;;7.53;4.57;;;;;18.90;96842.00;;;;8179885;28;20204;-66
2023/09/07 07:24:02;;;;;;;11.90;5.40;;;;;19.00;96845.00;;;;8180828;28;20232;-66
2023/09/07 07:28:07;;;;;;;10.20;4.85;;;;;19.10;96851.00;;;;8176642;28;20208;-66
2023/09/07 07:32:10;;;;;;;8.20;4.88;;;;;19.30;96853.00;;;;8180571;28;20257;-65
2023/09/07 07:36:20;;;;;;;4.97;4.38;;;;;19.40;96852.00;;;;8182272;28;20214;-66
2023/09/07 07:40:29;;;;;;;7.85;4.80;;;;;19.70;96854.00;;;;8185216;28;20205;-67
2023/09/07 07:44:35;;;;;;;8.98;5.15;;;;;20.00;96852.00;;;;8183052;28;20509;-66
2023/09/07 07:48:38;;;;;;;7.32;4.80;;;;;20.30;96852.00;;;;8176864;28;20327;-68
2023/09/07 07:52:43;;;;;;;25.35;5.80;;;;;20.70;96860.00;;;;8176335;28;20200;-68
2023/09/07 07:56:51;;;;;;;12.65;4.72;;;;;21.10;96865.00;;;;8179507;28;20195;-67
2023/09/07 08:00:57;;;;;;;7.28;4.32;;;;;21.50;96859.00;;;;8176810;28;20208;-65
2023/09/07 08:05:07;;;;;;;8.88;3.88;;;;;21.80;96863.00;;;;8178972;28;20232;-66
2023/09/07 08:09:16;;;;;;;7.47;4.88;;;;;22.30;96859.00;;;;8163552;28;20211;-66
2023/09/07 08:13:23;;;;;;;7.45;4.05;;;;;23.20;96860.00;;;;8177658;28;20291;-67
2023/09/07 08:17:26;;;;;;;4.85;4.45;;;;;24.10;96863.00;;;;8166509;28;20219;-66
2023/09/07 08:21:30;;;;;;;5.25;4.40;;;;;24.80;96859.00;;;;8178052;28;21630;-66
2023/09/07 08:25:33;;;;;;;7.40;4.60;;;;;24.80;96867.00;;;;8177911;28;20247;-68
2023/09/07 08:29:39;;;;;;;7.40;4.43;;;;;25.00;96870.00;;;;8179354;28;20207;-66
2023/09/07 08:33:42;;;;;;;6.03;4.15;;;;;25.20;96875.00;;;;8177543;28;20203;-69
2023/09/07 08:37:54;;;;;;;7.15;4.82;;;;;25.30;96873.00;;;;8180392;28;20282;-66
2023/09/07 08:41:58;;;;;;;6.75;5.20;;;;;25.50;96873.00;;;;8164530;28;20203;-66
2023/09/07 08:46:15;;;;;;;6.22;4.63;;;;;25.80;96872.00;;;;8176595;28;20240;-67
2023/09/07 08:50:23;;;;;;;5.63;4.30;;;;;26.00;96871.00;;;;8159776;28;20208;-67
2023/09/07 08:54:27;;;;;;;6.88;4.32;;;;;26.50;96861.00;;;;8176505;28;20223;-66
2023/09/07 08:58:31;;;;;;;5.15;4.20;;;;;26.70;96867.00;;;;8163037;28;20690;-68
2023/09/07 09:02:39;;;;;;;5.75;4.07;;;;;26.70;96860.00;;;;8176067;28;20232;-69
2023/09/07 09:06:43;;;;;;;6.28;3.97;;;;;27.40;96869.00;;;;8175323;28;20298;-68
2023/09/07 09:10:46;;;;;;;3.78;3.40;;;;;27.70;96869.00;;;;8172624;28;20315;-67
2023/09/07 09:14:53;;;;;;;3.50;3.30;;;;;28.10;96873.00;;;;8178528;28;20204;-67
2023/09/07 09:18:58;;;;;;;4.45;3.50;;;;;28.20;96869.00;;;;8178833;28;20710;-68
2023/09/07 09:23:07;;;;;;;4.55;3.65;;;;;28.90;96877.00;;;;8159472;28;20211;-67
2023/09/07 09:27:10;;;;;;;3.70;3.38;;;;;29.20;96878.00;;;;8175992;28;20323;-67
2023/09/07 09:31:18;;;;;;;5.85;3.58;;;;;29.20;96875.00;;;;8181348;28;20207;-68
2023/09/07 09:35:38;;;;;;;4.72;3.53;;;;;29.00;96879.00;;;;8183823;28;20283;-66
2023/09/07 09:39:43;;;;;;;4.05;3.47;;;;;29.10;96878.00;;;;8183425;28;20291;-67
2023/09/07 09:43:49;;;;;;;3.97;3.65;;;;;29.00;96873.00;;;;8186291;28;20226;-67
2023/09/07 09:48:00;;;;;;;4.95;3.60;;;;;29.40;96872.00;;;;8180926;28;20827;-67
2023/09/07 09:52:11;;;;;;;4.32;3.20;;;;;29.30;96875.00;;;;8184229;28;20684;-67
2023/09/07 09:56:15;;;;;;;3.60;3.33;;;;;29.10;96879.00;;;;8182814;28;20205;-67
2023/09/07 10:00:27;;;;;;;3.92;3.40;;;;;29.40;96878.00;;;;8180163;28;20282;-66
2023/09/07 10:04:33;;;;;;;3.80;3.47;;;;;29.70;96872.00;;;;8177735;28;20310;-68
2023/09/07 10:08:38;;;;;;;6.35;3.17;;;;;29.90;96879.00;;;;8183462;28;20203;-69
2023/09/07 10:12:42;;;;;;;4.32;3.60;;;;;29.90;96877.00;;;;8175594;28;20231;-65
2023/09/07 10:16:47;;;;;;;4.82;3.67;;;;;29.60;96874.00;;;;8178815;28;20848;-68
2023/09/07 10:20:52;;;;;;;4.82;3.83;;;;;29.80;96868.00;;;;8176899;28;20216;-66
2023/09/07 10:25:00;;;;;;;6.03;3.60;;;;;30.30;96859.00;;;;8182830;28;20316;-67
2023/09/07 10:29:11;;;;;;;5.88;3.30;;;;;30.50;96859.00;;;;8164638;28;20633;-68
2023/09/07 10:33:21;;;;;;;5.38;3.50;;;;;30.50;96859.00;;;;8179734;28;20673;-68
2023/09/07 10:37:30;;;;;;;5.53;3.25;;;;;30.50;96855.00;;;;8182924;28;20216;-67
2023/09/07 10:41:43;;;;;;;3.92;3.58;;;;;30.80;96849.00;;;;8182688;28;20323;-67
2023/09/07 10:45:46;;;;;;;7.72;3.75;;;;;30.80;96852.00;;;;8178871;28;20433;-68
2023/09/07 10:49:59;;;;;;;5.68;3.53;;;;;30.80;96842.00;;;;8172685;28;20232;-68
2023/09/07 10:54:17;;;;;;;6.18;3.58;;;;;31.00;96845.00;;;;8168985;28;20204;-68
2023/09/07 10:58:29;;;;;;;4.22;3.70;;;;;31.00;96836.00;;;;8180003;28;20255;-67
2023/09/07 11:02:36;;;;;;;4.20;3.70;;;;;30.50;96833.00;;;;8179908;28;20271;-67
2023/09/07 11:06:43;;;;;;;4.03;3.58;;;;;30.10;96830.00;;;;8176849;28;20243;-67
2023/09/07 11:10:48;;;;;;;5.93;3.50;;;;;30.00;96833.00;;;;8176848;28;20200;-67
2023/09/07 11:14:59;;;;;;;6.28;3.60;;;;;29.70;96824.00;;;;8176774;28;20208;-68
2023/09/07 11:19:05;;;;;;;8.05;4.00;;;;;29.70;96818.00;;;;8180070;28;20200;-69
2023/09/07 11:23:12;;;;;;;7.97;4.30;;;;;29.50;96814.00;;;;8181201;28;20243;-70
2023/09/07 11:27:18;;;;;;;3.92;3.63;;;;;29.70;96818.00;;;;8165003;28;20287;-67
2023/09/07 11:31:22;;;;;;;5.13;3.58;;;;;29.80;96815.00;;;;8178351;28;20236;-66
2023/09/07 11:35:28;;;;;;;4.13;3.80;;;;;29.90;96813.00;;;;8175796;28;20280;-67
2023/09/07 11:39:33;;;;;;;4.63;3.47;;;;;29.80;96811.00;;;;8177449;28;20210;-68
2023/09/07 11:43:39;;;;;;;5.97;3.80;;;;;29.90;96810.00;;;;8180831;28;20492;-70
2023/09/07 11:47:43;;;;;;;5.72;3.67;;;;;29.80;96810.00;;;;8174451;28;20236;-68
2023/09/07 11:51:46;;;;;;;4.97;3.67;;;;;30.00;96816.00;;;;8179158;28;20211;-67
2023/09/07 11:55:51;;;;;;;4.78;3.80;;;;;30.00;96807.00;;;;8173507;28;20201;-68
2023/09/07 11:59:54;;;;;;;6.10;3.30;;;;;29.50;96805.00;;;;8175778;28;20670;-67
2023/09/07 12:04:04;;;;;;;5.13;3.58;;;;;29.30;96815.00;;;;8176791;28;20240;-70
2023/09/07 12:08:07;;;;;;;4.05;3.60;;;;;29.20;96814.00;;;;8179995;28;20230;-67
2023/09/07 12:12:13;;;;;;;4.53;3.75;;;;;29.20;96807.00;;;;8178355;28;20676;-68
2023/09/07 12:16:17;;;;;;;6.15;4.05;;;;;29.30;96811.00;;;;8177178;28;20610;-67
2023/09/07 12:20:25;;;;;;;7.60;4.18;;;;;29.00;96802.00;;;;8181670;28;20701;-66
2023/09/07 12:24:29;;;;;;;13.15;4.10;;;;;28.80;96790.00;;;;8177844;28;20196;-67
2023/09/07 12:28:32;;;;;;;6.25;3.40;;;;;28.70;96798.00;;;;8176560;28;20956;-66
2023/09/07 12:32:37;;;;;;;6.07;4.00;;;;;28.80;96789.00;;;;8178847;28;20192;-68
2023/09/07 12:36:42;;;;;;;5.25;3.72;;;;;28.90;96785.00;;;;8177810;28;20212;-67
2023/09/07 12:40:48;;;;;;;6.80;3.53;;;;;28.90;96783.00;;;;8174801;28;20219;-69
2023/09/07 12:44:53;;;;;;;4.97;3.75;;;;;28.80;96778.00;;;;8170617;28;20981;-70
2023/09/07 12:48:57;;;;;;;4.50;3.40;;;;;28.70;96781.00;;;;8178097;28;20224;-68
2023/09/07 12:53:04;;;;;;;5.88;3.90;;;;;28.70;96774.00;;;;8178273;28;20238;-67
2023/09/07 12:57:08;;;;;;;3.83;3.10;;;;;28.80;96771.00;;;;8179144;28;20246;-67
2023/09/07 13:01:15;;;;;;;3.97;3.55;;;;;28.90;96775.00;;;;8179614;28;20215;-66
2023/09/07 13:05:20;;;;;;;5.05;3.70;;;;;28.90;96775.00;;;;8177179;28;20262;-68
2023/09/07 13:09:27;;;;;;;9.10;4.03;;;;;28.90;96771.00;;;;8178609;28;20235;-68
2023/09/07 13:13:31;;;;;;;4.28;3.88;;;;;29.00;96768.00;;;;8190039;28;20279;-65
2023/09/07 13:17:37;;;;;;;6.38;3.50;;;;;29.10;96766.00;;;;8207292;29;20200;-65
2023/09/07 13:21:41;;;;;;;6.85;4.10;;;;;29.20;96769.00;;;;8207098;29;20200;-66
2023/09/07 13:25:50;;;;;;;4.80;4.20;;;;;29.30;96754.00;;;;8206844;29;20283;-65
2023/09/07 13:29:56;;;;;;;6.05;3.70;;;;;29.40;96756.00;;;;8200250;29;20222;-65
2023/09/07 13:34:01;;;;;;;4.75;3.60;;;;;29.50;96754.00;;;;8206591;29;20196;-66
2023/09/07 13:38:07;;;;;;;7.75;3.95;;;;;29.70;96751.00;;;;8207056;29;20196;-66
2023/09/07 13:42:11;;;;;;;3.80;3.50;;;;;30.00;96746.00;;;;8207188;29;20618;-66
2023/09/07 13:46:15;;;;;;;4.25;3.85;;;;;30.50;96747.00;;;;8207633;29;20227;-66
2023/09/07 13:50:22;;;;;;;3.92;3.55;;;;;31.10;96739.00;;;;8205637;28;20585;-66
2023/09/07 13:54:26;;;;;;;3.60;3.30;;;;;31.50;96740.00;;;;8204927;29;20211;-66
2023/09/07 13:58:34;;;;;;;3.80;3.50;;;;;32.00;96741.00;;;;8204902;28;20191;-65
2023/09/07 14:02:39;;;;;;;19.20;4.65;;;;;32.20;96743.00;;;;8206394;28;20232;-64
2023/09/07 14:06:43;;;;;;;14.57;3.80;;;;;32.50;96746.00;;;;8205796;28;20220;-65
2023/09/07 14:10:47;;;;;;;4.43;3.63;;;;;32.50;96743.00;;;;8206063;28;20196;-65
2023/09/07 14:14:51;;;;;;;4.40;3.72;;;;;32.60;96739.00;;;;8205653;28;20510;-65
2023/09/07 14:18:59;;;;;;;7.00;3.10;;;;;32.70;96749.00;;;;8205111;28;20211;-65
2023/09/07 14:23:06;;;;;;;5.38;3.33;;;;;32.70;96743.00;;;;8189637;29;20621;-65
2023/09/07 14:27:09;;;;;;;5.50;3.45;;;;;32.80;96748.00;;;;8202851;29;20224;-65
2023/09/07 14:31:14;;;;;;;5.57;3.30;;;;;32.90;96740.00;;;;8205666;28;20202;-65
2023/09/07 14:35:17;;;;;;;4.63;3.25;;;;;32.90;96740.00;;;;8203850;29;20200;-66
2023/09/07 14:39:24;;;;;;;4.20;3.47;;;;;32.90;96734.00;;;;8203579;28;20283;-66
2023/09/07 14:43:33;;;;;;;3.58;3.28;;;;;32.90;96729.00;;;;8205363;29;20196;-65
2023/09/07 14:47:41;;;;;;;4.03;3.50;;;;;32.80;96733.00;;;;8201264;29;20234;-66
2023/09/07 14:51:44;;;;;;;4.97;3.75;;;;;32.60;96735.00;;;;8202526;29;20586;-67
2023/09/07 14:55:52;;;;;;;10.68;3.45;;;;;32.20;96739.00;;;;8203242;29;20283;-65
2023/09/07 15:00:03;;;;;;;4.95;3.38;;;;;32.00;96727.00;;;;8203478;29;20236;-65
2023/09/07 15:04:07;;;;;;;4.07;3.00;;;;;32.00;96732.00;;;;8204592;28;20228;-66
2023/09/07 15:08:17;;;;;;;5.07;3.42;;;;;31.90;96730.00;;;;8204205;29;20618;-64
2023/09/07 15:12:23;;;;;;;3.80;3.40;;;;;31.90;96736.00;;;;8204468;29;20593;-66
2023/09/07 15:16:29;;;;;;;4.72;3.38;;;;;31.90;96739.00;;;;8203774;29;20283;-64
2023/09/07 15:20:36;;;;;;;4.45;3.58;;;;;31.80;96725.00;;;;8200589;29;20200;-65
2023/09/07 15:24:41;;;;;;;3.55;3.33;;;;;31.70;96732.00;;;;8204123;29;20196;-65
2023/09/07 15:28:44;;;;;;;8.52;3.78;;;;;31.70;96735.00;;;;8202867;28;20254;-65
2023/09/07 15:32:48;;;;;;;3.78;3.47;;;;;31.70;96729.00;;;;8202315;28;20251;-64
2023/09/07 15:36:56;;;;;;;5.45;3.90;;;;;31.70;96734.00;;;;8202805;29;20184;-65
2023/09/07 15:41:04;;;;;;;4.55;3.67;;;;;31.60;96732.00;;;;8202696;28;20207;-65
2023/09/07 15:45:08;;;;;;;4.90;3.75;;;;;31.60;96746.00;;;;8203883;29;20235;-65
2023/09/07 15:49:14;;;;;;;4.18;3.80;;;;;31.70;96730.00;;;;8202607;29;20258;-65
2023/09/07 15:53:20;;;;;;;4.20;3.40;;;;;31.80;96733.00;;;;8202730;29;20267;-65
2023/09/07 15:57:23;;;;;;;4.32;3.60;;;;;31.90;96746.00;;;;8202352;29;20196;-65
2023/09/07 16:01:28;;;;;;;5.30;3.72;;;;;32.00;96745.00;;;;8203055;28;20195;-65
2023/09/07 16:05:33;;;;;;;5.97;4.03;;;;;32.10;96739.00;;;;8203639;28;20479;-65
2023/09/07 16:09:39;;;;;;;7.70;3.60;;;;;32.20;96744.00;;;;8202865;28;20270;-65
2023/09/07 16:13:43;;;;;;;8.10;4.20;;;;;32.30;96735.00;;;;8203679;28;20626;-65
2023/09/07 16:17:46;;;;;;;5.35;3.63;;;;;32.50;96739.00;;;;8203469;29;20288;-65
2023/09/07 16:21:50;;;;;;;4.78;3.50;;;;;32.70;96740.00;;;;8203116;29;20641;-65
2023/09/07 16:25:57;;;;;;;6.88;3.67;;;;;32.60;96732.00;;;;8202235;29;20231;-65
2023/09/07 16:30:07;;;;;;;6.32;3.60;;;;;32.50;96743.00;;;;8202401;29;20224;-65
2023/09/07 16:34:10;;;;;;;9.98;3.80;;;;;32.40;96743.00;;;;8201708;29;20659;-65
2023/09/07 16:38:18;;;;;;;3.83;3.40;;;;;32.30;96741.00;;;;8201000;29;20200;-65
2023/09/07 16:42:23;;;;;;;5.13;3.75;;;;;31.80;96750.00;;;;8204544;28;20278;-66
2023/09/07 16:46:26;;;;;;;4.78;3.53;;;;;31.00;96741.00;;;;8207897;29;20235;-65
2023/09/07 16:50:30;;;;;;;3.55;3.25;;;;;30.20;96752.00;;;;8208184;29;20306;-66
2023/09/07 16:54:33;;;;;;;4.35;3.45;;;;;29.60;96735.00;;;;8208902;29;20200;-65
2023/09/07 16:58:45;;;;;;;5.55;3.35;;;;;29.10;96744.00;;;;8191311;29;20216;-64
2023/09/07 17:03:11;;;;;;;3.50;3.20;;;;;28.60;96746.00;;;;8209203;28;20609;-63
2023/09/07 17:07:16;;;;;;;5.47;3.80;;;;;28.20;96743.00;;;;8209039;29;20254;-64
2023/09/07 17:11:24;;;;;;;5.78;3.90;;;;;27.80;96741.00;;;;8208109;29;20199;-63
2023/09/07 17:15:35;;;;;;;4.32;3.92;;;;;27.50;96733.00;;;;8205892;29;20291;-64
2023/09/07 17:19:38;;;;;;;5.68;3.78;;;;;27.20;96743.00;;;;8207450;29;20288;-64
2023/09/07 17:23:43;;;;;;;5.05;3.67;;;;;26.90;96739.00;;;;8207384;29;20251;-64
2023/09/07 17:27:49;;;;;;;5.68;3.70;;;;;26.60;96732.00;;;;8207143;29;20278;-64
2023/09/07 17:31:54;;;;;;;6.70;3.70;;;;;26.30;96740.00;;;;8206493;29;20227;-64
2023/09/07 17:36:00;;;;;;;6.03;4.25;;;;;26.00;96731.00;;;;8207050;28;20200;-63
2023/09/07 17:40:06;;;;;;;7.38;3.50;;;;;25.70;96727.00;;;;8206986;29;20192;-63
2023/09/07 17:44:11;;;;;;;5.38;3.95;;;;;25.40;96724.00;;;;8207177;29;20242;-64
2023/09/07 17:48:18;;;;;;;5.38;3.45;;;;;25.20;96727.00;;;;8206829;29;20223;-64
2023/09/07 17:52:23;;;;;;;4.70;4.22;;;;;25.00;96726.00;;;;8206849;28;20246;-64
2023/09/07 17:56:26;;;;;;;7.10;3.55;;;;;24.80;96728.00;;;;8205323;29;20196;-65
2023/09/07 18:00:29;;;;;;;8.77;3.88;;;;;24.70;96736.00;;;;8206068;29;20656;-69
2023/09/07 18:04:34;;;;;;;4.63;4.22;;;;;24.60;96733.00;;;;8206911;28;20228;-68
2023/09/07 18:08:38;;;;;;;4.53;3.80;;;;;24.50;96750.00;;;;8206071;28;20707;-69
2023/09/07 18:12:44;;;;;;;4.20;3.80;;;;;24.30;96745.00;;;;8206330;29;20232;-69
2023/09/07 18:16:47;;;;;;;6.53;4.20;;;;;24.10;96749.00;;;;8206515;29;20282;-68
2023/09/07 18:20:55;;;;;;;9.10;4.38;;;;;23.90;96756.00;;;;8205892;29;20206;-68
2023/09/07 18:25:04;;;;;;;7.20;3.85;;;;;23.60;96757.00;;;;8206268;29;20231;-68
2023/09/07 18:29:07;;;;;;;5.53;3.78;;;;;23.40;96755.00;;;;8205792;29;20310;-68
2023/09/07 18:33:11;;;;;;;6.53;3.42;;;;;23.20;96757.00;;;;8205744;29;20639;-68
2023/09/07 18:37:18;;;;;;;5.00;3.40;;;;;23.10;96756.00;;;;8205492;29;20278;-68
2023/09/07 18:41:21;;;;;;;5.20;3.75;;;;;23.10;96751.00;;;;8206675;29;20291;-67
2023/09/07 18:45:25;;;;;;;14.18;3.63;;;;;23.10;96755.00;;;;8205187;29;20283;-68
2023/09/07 18:49:29;;;;;;;3.80;3.50;;;;;23.10;96750.00;;;;8204845;29;20227;-68
2023/09/07 18:53:37;;;;;;;6.28;4.03;;;;;23.00;96755.00;;;;8204074;29;20290;-71
2023/09/07 18:57:40;;;;;;;5.50;3.65;;;;;22.90;96757.00;;;;8205597;29;20200;-71
2023/09/07 19:01:43;;;;;;;10.75;3.90;;;;;22.90;96761.00;;;;8204860;29;20279;-70
2023/09/07 19:05:46;;;;;;;5.50;3.47;;;;;22.80;96762.00;;;;8204819;28;20318;-71
2023/09/07 19:09:54;;;;;;;6.03;3.65;;;;;22.60;96760.00;;;;8205097;29;20234;-70
2023/09/07 19:14:00;;;;;;;8.55;3.67;;;;;22.50;96759.00;;;;8204140;28;20203;-70
2023/09/07 19:18:06;;;;;;;6.10;3.42;;;;;22.50;96762.00;;;;8204507;29;20236;-71
2023/09/07 19:22:09;;;;;;;6.32;3.58;;;;;22.40;96756.00;;;;8204152;29;20225;-71
2023/09/07 19:26:36;;;;;;;7.75;4.13;;;;;22.40;96762.00;;;;8203955;29;20196;-71
2023/09/07 19:30:46;;;;;;;6.15;3.90;;;;;22.30;96760.00;;;;8199892;29;20231;-70
2023/09/07 19:34:52;;;;;;;4.80;3.83;;;;;22.20;96758.00;;;;8196739;29;20479;-71
2023/09/07 19:39:09;;;;;;;3.95;3.50;;;;;22.10;96755.00;;;;8203106;29;20231;-71
2023/09/07 19:43:15;;;;;;;4.50;3.92;;;;;22.00;96767.00;;;;8203645;29;20216;-71
2023/09/07 19:47:18;;;;;;;6.50;3.92;;;;;21.90;96759.00;;;;8203233;28;20238;-71
2023/09/07 19:51:26;;;;;;;5.25;4.00;;;;;21.70;96764.00;;;;8203554;29;20319;-72
2023/09/07 19:55:31;;;;;;;6.50;3.90;;;;;21.60;96761.00;;;;8203546;29;20641;-72
2023/09/07 19:59:36;;;;;;;7.07;4.00;;;;;21.50;96768.00;;;;8202794;28;20236;-70
2023/09/07 20:03:44;;;;;;;7.90;4.30;;;;;21.40;96772.00;;;;8203070;28;20311;-72
2023/09/07 20:07:49;;;;;;;5.18;4.07;;;;;21.30;96777.00;;;;8203424;29;20526;-71
2023/09/07 20:11:59;;;;;;;5.97;3.88;;;;;21.20;96771.00;;;;8202320;29;20681;-70
2023/09/07 20:16:06;;;;;;;5.32;4.05;;;;;21.10;96765.00;;;;8202260;29;20240;-71
2023/09/07 20:20:12;;;;;;;6.00;4.22;;;;;21.00;96762.00;;;;8202150;28;20212;-71
2023/09/07 20:24:15;;;;;;;6.13;4.20;;;;;20.90;96767.00;;;;8203030;29;20239;-72
2023/09/07 20:28:24;;;;;;;9.32;4.40;;;;;20.80;96763.00;;;;8201425;29;20207;-71